sensor_id;sensor_type;location;lat;lon;timestamp;temperature;humidity
28947;DHT22;16052;50.930;5.326;2023-03-14T00:01:20;11.60;99.90
28947;DHT22;16052;50.930;5.326;2023-03-14T00:03:45;11.60;99.90
28947;DHT22;16052;50.930;5.326;2023-03-14T00:06:12;11.60;99.90
28947;DHT22;16052;50.930;5.326;2023-03-14T00:08:38;11.60;99.90
28947;DHT22;16052;50.930;5.326;2023-03-14T00:11:09;11.60;99.90
28947;DHT22;16052;50.930;5.326;2023-03-14T00:13:35;11.60;99.90
28947;DHT22;16052;50.930;5.326;2023-03-14T00:16:06;11.60;99.90
28947;DHT22;16052;50.930;5.326;2023-03-14T00:18:33;11.60;99.90
28947;DHT22;16052;50.930;5.326;2023-03-14T00:21:00;11.60;99.90
28947;DHT22;16052;50.930;5.326;2023-03-14T00:23:27;11.50;99.90
28947;DHT22;16052;50.930;5.326;2023-03-14T00:25:53;11.50;99.90
28947;DHT22;16052;50.930;5.326;2023-03-14T00:28:19;11.50;99.90
28947;DHT22;16052;50.930;5.326;2023-03-14T00:30:45;11.40;99.90
28947;DHT22;16052;50.930;5.326;2023-03-14T00:33:11;11.40;99.90
28947;DHT22;16052;50.930;5.326;2023-03-14T00:35:36;11.40;99.90
28947;DHT22;16052;50.930;5.326;2023-03-14T00:38:02;11.30;99.90
28947;DHT22;16052;50.930;5.326;2023-03-14T00:40:28;11.40;99.90
28947;DHT22;16052;50.930;5.326;2023-03-14T00:42:53;11.50;99.90
28947;DHT22;16052;50.930;5.326;2023-03-14T00:45:19;11.50;99.90
28947;DHT22;16052;50.930;5.326;2023-03-14T00:47:44;11.50;99.90
28947;DHT22;16052;50.930;5.326;2023-03-14T00:50:12;11.50;99.90
28947;DHT22;16052;50.930;5.326;2023-03-14T00:52:43;11.40;99.90
28947;DHT22;16052;50.930;5.326;2023-03-14T00:55:09;11.40;99.90
28947;DHT22;16052;50.930;5.326;2023-03-14T00:57:34;11.40;99.90
28947;DHT22;16052;50.930;5.326;2023-03-14T01:00:00;11.30;99.90
28947;DHT22;16052;50.930;5.326;2023-03-14T01:02:26;11.40;99.90
28947;DHT22;16052;50.930;5.326;2023-03-14T01:04:51;11.50;99.90
28947;DHT22;16052;50.930;5.326;2023-03-14T01:07:17;11.50;99.90
28947;DHT22;16052;50.930;5.326;2023-03-14T01:09:43;11.30;99.90
28947;DHT22;16052;50.930;5.326;2023-03-14T01:12:08;11.30;99.90
28947;DHT22;16052;50.930;5.326;2023-03-14T01:14:34;11.30;99.90
28947;DHT22;16052;50.930;5.326;2023-03-14T01:17:00;11.30;99.90
28947;DHT22;16052;50.930;5.326;2023-03-14T01:19:27;11.30;99.90
28947;DHT22;16052;50.930;5.326;2023-03-14T01:21:54;11.30;99.90
28947;DHT22;16052;50.930;5.326;2023-03-14T01:24:19;11.30;99.90
28947;DHT22;16052;50.930;5.326;2023-03-14T01:26:46;11.30;99.90
28947;DHT22;16052;50.930;5.326;2023-03-14T01:29:12;11.30;99.90
28947;DHT22;16052;50.930;5.326;2023-03-14T01:31:38;11.30;99.90
28947;DHT22;16052;50.930;5.326;2023-03-14T01:34:03;11.30;99.90
28947;DHT22;16052;50.930;5.326;2023-03-14T01:36:29;11.30;99.90
28947;DHT22;16052;50.930;5.326;2023-03-14T01:38:54;11.30;99.90
28947;DHT22;16052;50.930;5.326;2023-03-14T01:41:23;11.30;99.90
28947;DHT22;16052;50.930;5.326;2023-03-14T01:43:49;11.40;99.90
28947;DHT22;16052;50.930;5.326;2023-03-14T01:49:17;11.40;99.90
28947;DHT22;16052;50.930;5.326;2023-03-14T01:51:56;11.40;99.90
28947;DHT22;16052;50.930;5.326;2023-03-14T01:54:37;11.40;99.90
28947;DHT22;16052;50.930;5.326;2023-03-14T01:59:33;11.40;99.90
28947;DHT22;16052;50.930;5.326;2023-03-14T02:02:00;11.40;99.90
28947;DHT22;16052;50.930;5.326;2023-03-14T02:04:29;11.40;99.90
28947;DHT22;16052;50.930;5.326;2023-03-14T02:07:20;11.40;99.90
28947;DHT22;16052;50.930;5.326;2023-03-14T02:09:48;11.40;99.90
28947;DHT22;16052;50.930;5.326;2023-03-14T02:12:15;11.50;99.90
28947;DHT22;16052;50.930;5.326;2023-03-14T02:14:41;11.40;99.90
28947;DHT22;16052;50.930;5.326;2023-03-14T02:17:14;11.40;99.90
28947;DHT22;16052;50.930;5.326;2023-03-14T02:22:10;11.30;99.90
28947;DHT22;16052;50.930;5.326;2023-03-14T02:24:46;11.40;99.90
28947;DHT22;16052;50.930;5.326;2023-03-14T02:27:17;11.40;99.90
28947;DHT22;16052;50.930;5.326;2023-03-14T02:32:16;11.10;99.90
28947;DHT22;16052;50.930;5.326;2023-03-14T02:34:43;11.00;99.90
28947;DHT22;16052;50.930;5.326;2023-03-14T02:37:11;10.90;99.90
28947;DHT22;16052;50.930;5.326;2023-03-14T02:39:41;10.90;99.90
28947;DHT22;16052;50.930;5.326;2023-03-14T02:42:08;10.80;99.90
28947;DHT22;16052;50.930;5.326;2023-03-14T02:44:33;10.70;99.90
28947;DHT22;16052;50.930;5.326;2023-03-14T02:47:02;10.60;99.90
28947;DHT22;16052;50.930;5.326;2023-03-14T02:49:30;10.60;99.90
28947;DHT22;16052;50.930;5.326;2023-03-14T02:51:56;10.50;99.90
28947;DHT22;16052;50.930;5.326;2023-03-14T02:54:22;10.50;99.90
28947;DHT22;16052;50.930;5.326;2023-03-14T02:56:47;10.40;99.90
28947;DHT22;16052;50.930;5.326;2023-03-14T02:59:13;10.40;99.90
28947;DHT22;16052;50.930;5.326;2023-03-14T03:01:39;10.50;99.90
28947;DHT22;16052;50.930;5.326;2023-03-14T03:04:04;10.40;99.90
28947;DHT22;16052;50.930;5.326;2023-03-14T03:06:30;10.30;99.90
28947;DHT22;16052;50.930;5.326;2023-03-14T03:08:56;10.30;99.90
28947;DHT22;16052;50.930;5.326;2023-03-14T03:11:21;10.20;99.90
28947;DHT22;16052;50.930;5.326;2023-03-14T03:13:47;10.20;99.90
28947;DHT22;16052;50.930;5.326;2023-03-14T03:16:12;10.20;99.90
28947;DHT22;16052;50.930;5.326;2023-03-14T03:18:41;10.10;99.90
28947;DHT22;16052;50.930;5.326;2023-03-14T03:21:07;10.10;99.90
28947;DHT22;16052;50.930;5.326;2023-03-14T03:23:34;10.10;99.90
28947;DHT22;16052;50.930;5.326;2023-03-14T03:25:59;10.20;99.90
28947;DHT22;16052;50.930;5.326;2023-03-14T03:28:25;10.20;99.90
28947;DHT22;16052;50.930;5.326;2023-03-14T03:30:51;10.20;99.90
28947;DHT22;16052;50.930;5.326;2023-03-14T03:33:16;10.30;99.90
28947;DHT22;16052;50.930;5.326;2023-03-14T03:35:49;10.40;99.90
28947;DHT22;16052;50.930;5.326;2023-03-14T03:38:16;10.50;99.90
28947;DHT22;16052;50.930;5.326;2023-03-14T03:40:42;10.40;99.90
28947;DHT22;16052;50.930;5.326;2023-03-14T03:43:08;10.40;99.90
28947;DHT22;16052;50.930;5.326;2023-03-14T03:45:34;10.40;99.90
28947;DHT22;16052;50.930;5.326;2023-03-14T03:48:00;10.40;99.90
28947;DHT22;16052;50.930;5.326;2023-03-14T03:50:25;10.40;99.90
28947;DHT22;16052;50.930;5.326;2023-03-14T03:52:51;10.50;99.90
28947;DHT22;16052;50.930;5.326;2023-03-14T03:55:16;10.40;99.90
28947;DHT22;16052;50.930;5.326;2023-03-14T03:57:42;10.40;99.90
28947;DHT22;16052;50.930;5.326;2023-03-14T04:00:09;10.40;99.90
28947;DHT22;16052;50.930;5.326;2023-03-14T04:02:37;10.40;99.90
28947;DHT22;16052;50.930;5.326;2023-03-14T04:05:02;10.20;99.90
28947;DHT22;16052;50.930;5.326;2023-03-14T04:07:30;10.30;99.90
28947;DHT22;16052;50.930;5.326;2023-03-14T04:09:56;10.30;99.90
28947;DHT22;16052;50.930;5.326;2023-03-14T04:12:22;10.40;99.90
28947;DHT22;16052;50.930;5.326;2023-03-14T04:14:47;10.40;99.90
28947;DHT22;16052;50.930;5.326;2023-03-14T04:17:13;10.40;99.90
28947;DHT22;16052;50.930;5.326;2023-03-14T04:19:39;10.20;99.90
28947;DHT22;16052;50.930;5.326;2023-03-14T04:22:04;10.20;99.90
28947;DHT22;16052;50.930;5.326;2023-03-14T04:24:30;10.20;99.90
28947;DHT22;16052;50.930;5.326;2023-03-14T04:26:55;10.20;99.90
28947;DHT22;16052;50.930;5.326;2023-03-14T04:29:21;10.20;99.90
28947;DHT22;16052;50.930;5.326;2023-03-14T04:31:47;10.30;99.90
28947;DHT22;16052;50.930;5.326;2023-03-14T04:34:12;10.20;99.90
28947;DHT22;16052;50.930;5.326;2023-03-14T04:36:38;10.20;99.90
28947;DHT22;16052;50.930;5.326;2023-03-14T04:39:03;10.20;99.90
28947;DHT22;16052;50.930;5.326;2023-03-14T04:41:29;10.30;99.90
28947;DHT22;16052;50.930;5.326;2023-03-14T04:43:56;10.20;99.90
28947;DHT22;16052;50.930;5.326;2023-03-14T04:46:21;10.20;99.90
28947;DHT22;16052;50.930;5.326;2023-03-14T04:48:47;10.30;99.90
28947;DHT22;16052;50.930;5.326;2023-03-14T04:51:12;10.30;99.90
28947;DHT22;16052;50.930;5.326;2023-03-14T04:53:38;10.30;99.90
28947;DHT22;16052;50.930;5.326;2023-03-14T04:56:04;10.30;99.90
28947;DHT22;16052;50.930;5.326;2023-03-14T04:58:30;10.20;99.90
28947;DHT22;16052;50.930;5.326;2023-03-14T05:01:02;10.20;99.90
28947;DHT22;16052;50.930;5.326;2023-03-14T05:03:27;10.20;99.90
28947;DHT22;16052;50.930;5.326;2023-03-14T05:05:53;10.20;99.90
28947;DHT22;16052;50.930;5.326;2023-03-14T05:08:20;10.20;99.90
28947;DHT22;16052;50.930;5.326;2023-03-14T05:10:52;10.20;99.90
28947;DHT22;16052;50.930;5.326;2023-03-14T05:13:17;10.20;99.90
28947;DHT22;16052;50.930;5.326;2023-03-14T05:15:43;10.30;99.90
28947;DHT22;16052;50.930;5.326;2023-03-14T05:18:10;10.30;99.90
28947;DHT22;16052;50.930;5.326;2023-03-14T05:20:35;10.30;99.90
28947;DHT22;16052;50.930;5.326;2023-03-14T05:23:01;10.30;99.90
28947;DHT22;16052;50.930;5.326;2023-03-14T05:25:26;10.40;99.90
28947;DHT22;16052;50.930;5.326;2023-03-14T05:27:54;10.40;99.90
28947;DHT22;16052;50.930;5.326;2023-03-14T05:30:20;10.40;99.90
28947;DHT22;16052;50.930;5.326;2023-03-14T05:32:47;10.30;99.90
28947;DHT22;16052;50.930;5.326;2023-03-14T05:35:13;10.30;99.90
28947;DHT22;16052;50.930;5.326;2023-03-14T05:37:38;10.30;99.90
28947;DHT22;16052;50.930;5.326;2023-03-14T05:40:05;10.40;99.90
28947;DHT22;16052;50.930;5.326;2023-03-14T05:42:32;10.30;99.90
28947;DHT22;16052;50.930;5.326;2023-03-14T05:44:57;10.40;99.90
28947;DHT22;16052;50.930;5.326;2023-03-14T05:47:25;10.40;99.90
28947;DHT22;16052;50.930;5.326;2023-03-14T05:49:50;10.40;99.90
28947;DHT22;16052;50.930;5.326;2023-03-14T05:52:17;10.30;99.90
28947;DHT22;16052;50.930;5.326;2023-03-14T05:54:42;10.20;99.90
28947;DHT22;16052;50.930;5.326;2023-03-14T05:57:08;10.30;99.90
28947;DHT22;16052;50.930;5.326;2023-03-14T05:59:34;10.40;99.90
28947;DHT22;16052;50.930;5.326;2023-03-14T06:01:59;10.30;99.90
28947;DHT22;16052;50.930;5.326;2023-03-14T06:04:25;10.40;99.90
28947;DHT22;16052;50.930;5.326;2023-03-14T06:06:51;10.50;99.90
28947;DHT22;16052;50.930;5.326;2023-03-14T06:09:16;10.40;99.90
28947;DHT22;16052;50.930;5.326;2023-03-14T06:11:44;10.50;99.90
28947;DHT22;16052;50.930;5.326;2023-03-14T06:14:11;10.50;99.90
28947;DHT22;16052;50.930;5.326;2023-03-14T06:16:37;10.50;99.90
28947;DHT22;16052;50.930;5.326;2023-03-14T06:19:02;10.50;99.90
28947;DHT22;16052;50.930;5.326;2023-03-14T06:21:28;10.50;99.90
28947;DHT22;16052;50.930;5.326;2023-03-14T06:23:54;10.50;99.90
28947;DHT22;16052;50.930;5.326;2023-03-14T06:26:19;10.50;99.90
28947;DHT22;16052;50.930;5.326;2023-03-14T06:28:45;10.60;99.90
28947;DHT22;16052;50.930;5.326;2023-03-14T06:31:11;10.50;99.90
28947;DHT22;16052;50.930;5.326;2023-03-14T06:33:37;10.60;99.90
28947;DHT22;16052;50.930;5.326;2023-03-14T06:36:02;10.60;99.90
28947;DHT22;16052;50.930;5.326;2023-03-14T06:38:28;10.70;99.90
28947;DHT22;16052;50.930;5.326;2023-03-14T06:40:53;10.70;99.90
28947;DHT22;16052;50.930;5.326;2023-03-14T06:43:22;10.70;99.90
28947;DHT22;16052;50.930;5.326;2023-03-14T06:45:47;10.60;99.90
28947;DHT22;16052;50.930;5.326;2023-03-14T06:48:13;10.70;99.90
28947;DHT22;16052;50.930;5.326;2023-03-14T06:50:39;10.70;99.90
28947;DHT22;16052;50.930;5.326;2023-03-14T06:53:06;10.70;99.90
28947;DHT22;16052;50.930;5.326;2023-03-14T06:55:32;10.80;99.90
28947;DHT22;16052;50.930;5.326;2023-03-14T06:57:58;10.80;99.90
28947;DHT22;16052;50.930;5.326;2023-03-14T07:00:23;10.80;99.90
28947;DHT22;16052;50.930;5.326;2023-03-14T07:02:50;10.90;99.90
28947;DHT22;16052;50.930;5.326;2023-03-14T07:05:15;10.80;99.90
28947;DHT22;16052;50.930;5.326;2023-03-14T07:07:41;10.80;99.90
28947;DHT22;16052;50.930;5.326;2023-03-14T07:10:07;10.80;99.90
28947;DHT22;16052;50.930;5.326;2023-03-14T07:12:34;10.80;99.90
28947;DHT22;16052;50.930;5.326;2023-03-14T07:14:59;10.80;99.90
28947;DHT22;16052;50.930;5.326;2023-03-14T07:17:25;10.80;99.90
28947;DHT22;16052;50.930;5.326;2023-03-14T07:19:50;10.80;99.90
28947;DHT22;16052;50.930;5.326;2023-03-14T07:22:16;10.80;99.90
28947;DHT22;16052;50.930;5.326;2023-03-14T07:24:41;10.90;99.90
28947;DHT22;16052;50.930;5.326;2023-03-14T07:27:07;10.80;99.90
28947;DHT22;16052;50.930;5.326;2023-03-14T07:29:33;10.90;99.90
28947;DHT22;16052;50.930;5.326;2023-03-14T07:31:58;10.80;99.90
28947;DHT22;16052;50.930;5.326;2023-03-14T07:34:24;10.70;99.90
28947;DHT22;16052;50.930;5.326;2023-03-14T07:36:50;10.70;99.90
28947;DHT22;16052;50.930;5.326;2023-03-14T07:39:16;10.70;99.90
28947;DHT22;16052;50.930;5.326;2023-03-14T07:41:42;10.70;99.90
28947;DHT22;16052;50.930;5.326;2023-03-14T07:44:07;10.70;99.90
28947;DHT22;16052;50.930;5.326;2023-03-14T07:46:33;10.70;99.90
28947;DHT22;16052;50.930;5.326;2023-03-14T07:48:58;10.70;99.90
28947;DHT22;16052;50.930;5.326;2023-03-14T07:51:24;10.60;99.90
28947;DHT22;16052;50.930;5.326;2023-03-14T07:53:50;10.60;99.90
28947;DHT22;16052;50.930;5.326;2023-03-14T07:56:15;10.50;99.90
28947;DHT22;16052;50.930;5.326;2023-03-14T07:58:41;9.90;99.90
28947;DHT22;16052;50.930;5.326;2023-03-14T08:01:06;9.70;99.90
28947;DHT22;16052;50.930;5.326;2023-03-14T08:03:32;9.70;99.90
28947;DHT22;16052;50.930;5.326;2023-03-14T08:05:58;9.70;99.90
28947;DHT22;16052;50.930;5.326;2023-03-14T08:08:24;9.50;99.90
28947;DHT22;16052;50.930;5.326;2023-03-14T08:10:49;9.20;99.90
28947;DHT22;16052;50.930;5.326;2023-03-14T08:13:15;9.10;99.90
28947;DHT22;16052;50.930;5.326;2023-03-14T08:15:41;9.00;99.90
28947;DHT22;16052;50.930;5.326;2023-03-14T08:18:06;8.90;99.90
28947;DHT22;16052;50.930;5.326;2023-03-14T08:20:32;8.80;99.90
28947;DHT22;16052;50.930;5.326;2023-03-14T08:23:00;8.80;99.90
28947;DHT22;16052;50.930;5.326;2023-03-14T08:25:26;8.80;99.90
28947;DHT22;16052;50.930;5.326;2023-03-14T08:27:52;8.90;99.90
28947;DHT22;16052;50.930;5.326;2023-03-14T08:30:19;8.80;99.90
28947;DHT22;16052;50.930;5.326;2023-03-14T08:32:45;8.90;99.90
28947;DHT22;16052;50.930;5.326;2023-03-14T08:35:12;8.90;99.90
28947;DHT22;16052;50.930;5.326;2023-03-14T08:37:37;8.60;99.90
28947;DHT22;16052;50.930;5.326;2023-03-14T08:40:05;8.40;99.90
28947;DHT22;16052;50.930;5.326;2023-03-14T08:42:36;8.20;99.90
28947;DHT22;16052;50.930;5.326;2023-03-14T08:45:02;8.10;99.90
28947;DHT22;16052;50.930;5.326;2023-03-14T08:47:28;7.90;99.90
28947;DHT22;16052;50.930;5.326;2023-03-14T08:49:53;7.90;99.90
28947;DHT22;16052;50.930;5.326;2023-03-14T08:52:19;8.00;99.90
28947;DHT22;16052;50.930;5.326;2023-03-14T08:54:45;8.00;99.90
28947;DHT22;16052;50.930;5.326;2023-03-14T08:57:11;8.00;99.90
28947;DHT22;16052;50.930;5.326;2023-03-14T08:59:36;8.00;99.90
28947;DHT22;16052;50.930;5.326;2023-03-14T09:02:02;8.00;99.90
28947;DHT22;16052;50.930;5.326;2023-03-14T09:04:31;8.00;99.90
28947;DHT22;16052;50.930;5.326;2023-03-14T09:06:56;8.00;99.90
28947;DHT22;16052;50.930;5.326;2023-03-14T09:09:26;8.00;99.90
28947;DHT22;16052;50.930;5.326;2023-03-14T09:11:58;8.10;99.90
28947;DHT22;16052;50.930;5.326;2023-03-14T09:14:24;8.20;99.90
28947;DHT22;16052;50.930;5.326;2023-03-14T09:16:49;8.20;99.90
28947;DHT22;16052;50.930;5.326;2023-03-14T09:19:16;8.30;99.90
28947;DHT22;16052;50.930;5.326;2023-03-14T09:21:41;8.30;99.90
28947;DHT22;16052;50.930;5.326;2023-03-14T09:24:07;8.20;99.90
28947;DHT22;16052;50.930;5.326;2023-03-14T09:26:32;8.20;99.90
28947;DHT22;16052;50.930;5.326;2023-03-14T09:28:58;8.20;99.90
28947;DHT22;16052;50.930;5.326;2023-03-14T09:31:24;8.30;99.90
28947;DHT22;16052;50.930;5.326;2023-03-14T09:33:49;8.30;99.90
28947;DHT22;16052;50.930;5.326;2023-03-14T09:36:15;8.30;99.90
28947;DHT22;16052;50.930;5.326;2023-03-14T09:38:41;8.30;99.90
28947;DHT22;16052;50.930;5.326;2023-03-14T09:41:33;8.40;99.90
28947;DHT22;16052;50.930;5.326;2023-03-14T09:44:25;8.30;99.90
28947;DHT22;16052;50.930;5.326;2023-03-14T09:46:52;8.40;99.90
28947;DHT22;16052;50.930;5.326;2023-03-14T09:51:49;8.30;99.90
28947;DHT22;16052;50.930;5.326;2023-03-14T09:54:31;8.10;99.90
28947;DHT22;16052;50.930;5.326;2023-03-14T09:56:57;8.10;99.90
28947;DHT22;16052;50.930;5.326;2023-03-14T09:59:22;8.20;99.90
28947;DHT22;16052;50.930;5.326;2023-03-14T10:01:48;8.10;99.90
28947;DHT22;16052;50.930;5.326;2023-03-14T10:04:17;8.10;99.90
28947;DHT22;16052;50.930;5.326;2023-03-14T10:06:44;8.10;99.90
28947;DHT22;16052;50.930;5.326;2023-03-14T10:09:22;8.10;99.90
28947;DHT22;16052;50.930;5.326;2023-03-14T10:11:56;8.00;99.90
28947;DHT22;16052;50.930;5.326;2023-03-14T10:14:33;7.80;99.90
28947;DHT22;16052;50.930;5.326;2023-03-14T10:17:10;7.70;99.90
28947;DHT22;16052;50.930;5.326;2023-03-14T10:19:37;7.70;99.90
28947;DHT22;16052;50.930;5.326;2023-03-14T10:22:15;7.70;99.90
28947;DHT22;16052;50.930;5.326;2023-03-14T10:24:53;7.90;99.90
28947;DHT22;16052;50.930;5.326;2023-03-14T10:27:21;7.90;99.90
28947;DHT22;16052;50.930;5.326;2023-03-14T10:29:54;7.90;99.90
28947;DHT22;16052;50.930;5.326;2023-03-14T10:32:22;8.00;99.90
28947;DHT22;16052;50.930;5.326;2023-03-14T10:35:20;8.00;99.90
28947;DHT22;16052;50.930;5.326;2023-03-14T10:37:56;8.00;99.90
28947;DHT22;16052;50.930;5.326;2023-03-14T10:40:37;7.90;99.90
28947;DHT22;16052;50.930;5.326;2023-03-14T10:43:05;7.90;99.90
28947;DHT22;16052;50.930;5.326;2023-03-14T10:45:38;7.80;99.90
28947;DHT22;16052;50.930;5.326;2023-03-14T10:48:19;7.70;99.90
28947;DHT22;16052;50.930;5.326;2023-03-14T10:50:57;7.50;99.90
28947;DHT22;16052;50.930;5.326;2023-03-14T10:53:26;7.50;99.90
28947;DHT22;16052;50.930;5.326;2023-03-14T10:56:24;7.50;99.90
28947;DHT22;16052;50.930;5.326;2023-03-14T10:58:53;7.30;99.90
28947;DHT22;16052;50.930;5.326;2023-03-14T11:15:15;7.20;99.90
28947;DHT22;16052;50.930;5.326;2023-03-14T11:23:58;7.20;99.90
28947;DHT22;16052;50.930;5.326;2023-03-14T11:31:39;7.60;99.90
28947;DHT22;16052;50.930;5.326;2023-03-14T11:34:22;7.70;99.90
28947;DHT22;16052;50.930;5.326;2023-03-14T11:36:55;7.70;99.90
28947;DHT22;16052;50.930;5.326;2023-03-14T11:39:26;7.60;99.90
28947;DHT22;16052;50.930;5.326;2023-03-14T11:41:57;7.50;99.90
28947;DHT22;16052;50.930;5.326;2023-03-14T11:44:37;7.40;99.90
28947;DHT22;16052;50.930;5.326;2023-03-14T11:52:39;7.60;99.90
28947;DHT22;16052;50.930;5.326;2023-03-14T11:55:30;7.90;99.90
28947;DHT22;16052;50.930;5.326;2023-03-14T11:58:01;8.20;99.90
28947;DHT22;16052;50.930;5.326;2023-03-14T12:00:29;8.30;99.90
28947;DHT22;16052;50.930;5.326;2023-03-14T12:11:19;8.00;99.90
28947;DHT22;16052;50.930;5.326;2023-03-14T12:13:52;8.00;99.90
28947;DHT22;16052;50.930;5.326;2023-03-14T12:18:51;7.80;99.90
28947;DHT22;16052;50.930;5.326;2023-03-14T12:21:18;7.80;99.90
28947;DHT22;16052;50.930;5.326;2023-03-14T12:23:53;7.90;99.90
28947;DHT22;16052;50.930;5.326;2023-03-14T12:26:22;7.90;99.90
28947;DHT22;16052;50.930;5.326;2023-03-14T12:28:52;7.80;99.90
28947;DHT22;16052;50.930;5.326;2023-03-14T12:31:46;7.80;99.90
28947;DHT22;16052;50.930;5.326;2023-03-14T12:45:33;8.40;99.90
28947;DHT22;16052;50.930;5.326;2023-03-14T12:48:17;8.50;99.90
28947;DHT22;16052;50.930;5.326;2023-03-14T12:51:05;8.50;99.90
28947;DHT22;16052;50.930;5.326;2023-03-14T12:56:38;8.50;99.90
28947;DHT22;16052;50.930;5.326;2023-03-14T12:59:36;8.60;99.90
28947;DHT22;16052;50.930;5.326;2023-03-14T13:02:19;8.40;99.90
28947;DHT22;16052;50.930;5.326;2023-03-14T13:04:53;8.30;99.90
28947;DHT22;16052;50.930;5.326;2023-03-14T13:12:54;7.70;99.90
28947;DHT22;16052;50.930;5.326;2023-03-14T13:17:49;7.30;99.90
28947;DHT22;16052;50.930;5.326;2023-03-14T13:20:35;7.10;99.90
28947;DHT22;16052;50.930;5.326;2023-03-14T13:23:02;7.10;99.90
28947;DHT22;16052;50.930;5.326;2023-03-14T13:25:35;7.20;99.90
28947;DHT22;16052;50.930;5.326;2023-03-14T13:28:02;7.20;99.90
28947;DHT22;16052;50.930;5.326;2023-03-14T13:30:38;7.20;99.90
28947;DHT22;16052;50.930;5.326;2023-03-14T13:33:05;7.30;99.90
28947;DHT22;16052;50.930;5.326;2023-03-14T13:35:40;7.30;99.90
28947;DHT22;16052;50.930;5.326;2023-03-14T13:38:19;7.40;99.90
28947;DHT22;16052;50.930;5.326;2023-03-14T13:40:46;7.40;99.90
28947;DHT22;16052;50.930;5.326;2023-03-14T13:46:06;7.60;99.90
28947;DHT22;16052;50.930;5.326;2023-03-14T13:48:35;7.60;99.90
28947;DHT22;16052;50.930;5.326;2023-03-14T13:51:09;7.70;99.90
28947;DHT22;16052;50.930;5.326;2023-03-14T13:53:47;7.70;99.90
28947;DHT22;16052;50.930;5.326;2023-03-14T13:56:18;7.60;99.90
28947;DHT22;16052;50.930;5.326;2023-03-14T13:58:45;7.50;99.90
28947;DHT22;16052;50.930;5.326;2023-03-14T14:01:22;7.60;99.90
28947;DHT22;16052;50.930;5.326;2023-03-14T14:03:56;7.50;99.90
28947;DHT22;16052;50.930;5.326;2023-03-14T14:06:54;7.60;99.90
28947;DHT22;16052;50.930;5.326;2023-03-14T14:09:37;7.50;99.90
28947;DHT22;16052;50.930;5.326;2023-03-14T14:12:13;7.40;99.90
28947;DHT22;16052;50.930;5.326;2023-03-14T14:17:51;7.10;99.90
28947;DHT22;16052;50.930;5.326;2023-03-14T14:20:38;6.90;99.90
28947;DHT22;16052;50.930;5.326;2023-03-14T14:23:14;6.80;99.90
28947;DHT22;16052;50.930;5.326;2023-03-14T14:25:43;6.80;99.90
28947;DHT22;16052;50.930;5.326;2023-03-14T14:30:41;6.80;99.90
28947;DHT22;16052;50.930;5.326;2023-03-14T14:33:18;6.70;99.90
28947;DHT22;16052;50.930;5.326;2023-03-14T14:35:57;6.80;99.90
28947;DHT22;16052;50.930;5.326;2023-03-14T14:38:24;6.80;99.90
28947;DHT22;16052;50.930;5.326;2023-03-14T14:40:53;6.90;99.90
28947;DHT22;16052;50.930;5.326;2023-03-14T14:43:25;6.90;99.90
28947;DHT22;16052;50.930;5.326;2023-03-14T14:45:53;6.80;99.90
28947;DHT22;16052;50.930;5.326;2023-03-14T14:48:23;6.80;99.90
28947;DHT22;16052;50.930;5.326;2023-03-14T14:51:02;6.90;99.90
28947;DHT22;16052;50.930;5.326;2023-03-14T14:58:43;7.10;99.90
28947;DHT22;16052;50.930;5.326;2023-03-14T15:01:16;7.10;99.90
28947;DHT22;16052;50.930;5.326;2023-03-14T15:03:45;7.10;99.90
28947;DHT22;16052;50.930;5.326;2023-03-14T15:06:15;7.10;99.90
28947;DHT22;16052;50.930;5.326;2023-03-14T15:08:43;7.20;99.90
28947;DHT22;16052;50.930;5.326;2023-03-14T15:11:19;7.20;99.90
28947;DHT22;16052;50.930;5.326;2023-03-14T15:13:45;7.20;99.90
28947;DHT22;16052;50.930;5.326;2023-03-14T15:16:12;7.20;99.90
28947;DHT22;16052;50.930;5.326;2023-03-14T15:18:39;7.30;99.90
28947;DHT22;16052;50.930;5.326;2023-03-14T15:21:05;7.30;99.90
28947;DHT22;16052;50.930;5.326;2023-03-14T15:23:32;7.20;99.90
28947;DHT22;16052;50.930;5.326;2023-03-14T15:25:57;7.20;99.90
28947;DHT22;16052;50.930;5.326;2023-03-14T15:28:28;7.10;99.90
28947;DHT22;16052;50.930;5.326;2023-03-14T15:30:58;7.10;99.90
28947;DHT22;16052;50.930;5.326;2023-03-14T15:33:25;7.20;99.90
28947;DHT22;16052;50.930;5.326;2023-03-14T15:35:52;7.30;99.90
28947;DHT22;16052;50.930;5.326;2023-03-14T15:38:19;7.30;99.90
28947;DHT22;16052;50.930;5.326;2023-03-14T15:40:50;7.60;79.50
28947;DHT22;16052;50.930;5.326;2023-03-14T15:43:16;7.80;46.40
28947;DHT22;16052;50.930;5.326;2023-03-14T15:45:44;7.80;36.10
28947;DHT22;16052;50.930;5.326;2023-03-14T15:48:18;8.00;27.20
28947;DHT22;16052;50.930;5.326;2023-03-14T15:50:48;8.10;8.60
28947;DHT22;16052;50.930;5.326;2023-03-14T15:53:14;8.10;9.40
28947;DHT22;16052;50.930;5.326;2023-03-14T15:55:41;8.20;1.00
28947;DHT22;16052;50.930;5.326;2023-03-14T15:58:16;8.30;1.00
28947;DHT22;16052;50.930;5.326;2023-03-14T16:00:43;8.40;1.00
28947;DHT22;16052;50.930;5.326;2023-03-14T16:03:08;8.40;1.00
28947;DHT22;16052;50.930;5.326;2023-03-14T16:05:36;8.30;1.00
28947;DHT22;16052;50.930;5.326;2023-03-14T16:08:02;8.50;1.00
28947;DHT22;16052;50.930;5.326;2023-03-14T16:10:29;8.50;1.00
28947;DHT22;16052;50.930;5.326;2023-03-14T16:12:55;8.50;1.00
28947;DHT22;16052;50.930;5.326;2023-03-14T16:15:21;8.50;1.00
28947;DHT22;16052;50.930;5.326;2023-03-14T16:17:46;8.30;1.00
28947;DHT22;16052;50.930;5.326;2023-03-14T16:20:12;8.00;1.00
28947;DHT22;16052;50.930;5.326;2023-03-14T16:22:38;7.90;1.00
28947;DHT22;16052;50.930;5.326;2023-03-14T16:25:05;7.70;1.00
28947;DHT22;16052;50.930;5.326;2023-03-14T16:27:32;7.60;1.00
28947;DHT22;16052;50.930;5.326;2023-03-14T16:29:58;7.60;1.00
28947;DHT22;16052;50.930;5.326;2023-03-14T16:32:27;7.60;1.00
28947;DHT22;16052;50.930;5.326;2023-03-14T16:34:52;7.50;1.00
28947;DHT22;16052;50.930;5.326;2023-03-14T16:37:18;7.50;1.00
28947;DHT22;16052;50.930;5.326;2023-03-14T16:39:46;7.50;1.00
28947;DHT22;16052;50.930;5.326;2023-03-14T16:42:13;7.50;1.00
28947;DHT22;16052;50.930;5.326;2023-03-14T16:44:39;7.50;1.00
28947;DHT22;16052;50.930;5.326;2023-03-14T16:47:05;7.50;1.00
28947;DHT22;16052;50.930;5.326;2023-03-14T16:49:30;7.50;1.00
28947;DHT22;16052;50.930;5.326;2023-03-14T16:51:56;7.50;2.40
28947;DHT22;16052;50.930;5.326;2023-03-14T16:54:22;7.50;9.70
28947;DHT22;16052;50.930;5.326;2023-03-14T16:56:47;7.60;16.90
28947;DHT22;16052;50.930;5.326;2023-03-14T16:59:15;7.70;14.50
28947;DHT22;16052;50.930;5.326;2023-03-14T17:01:41;7.80;16.70
28947;DHT22;16052;50.930;5.326;2023-03-14T17:04:08;7.90;20.60
28947;DHT22;16052;50.930;5.326;2023-03-14T17:06:34;8.10;12.40
28947;DHT22;16052;50.930;5.326;2023-03-14T17:09:01;8.20;7.00
28947;DHT22;16052;50.930;5.326;2023-03-14T17:11:33;8.10;1.00
28947;DHT22;16052;50.930;5.326;2023-03-14T17:14:02;7.80;10.00
28947;DHT22;16052;50.930;5.326;2023-03-14T17:16:28;7.80;14.90
28947;DHT22;16052;50.930;5.326;2023-03-14T17:18:54;7.90;6.80